createdAt,value
2018-09-05T00:47:58.803Z,7.70
2018-09-05T00:53:02.160Z,7.43
2018-09-05T00:58:05.559Z,7.17
2018-09-05T02:35:13.507Z,5.47
2018-09-05T02:40:17.685Z,4.60
2018-09-05T03:48:37.720Z,6.63
2018-09-05T03:53:41.048Z,5.77
2018-09-05T03:58:44.375Z,5.80
2018-09-05T04:32:33.796Z,6.20
2018-09-05T04:37:37.140Z,4.90
2018-09-05T04:42:41.536Z,6.40
2018-09-05T04:47:44.868Z,6.73
2018-09-05T04:52:48.257Z,4.20
2018-09-05T04:57:52.337Z,5.60
2018-09-05T05:02:56.464Z,3.93
2018-09-05T05:08:00.581Z,4.97
2018-09-05T05:13:03.921Z,4.47
2018-09-05T05:18:08.027Z,5.07
2018-09-05T05:23:11.356Z,3.73
2018-09-05T05:28:15.446Z,4.23
2018-09-05T05:33:18.777Z,4.80
2018-09-05T05:38:22.110Z,4.23
2018-09-05T05:43:26.204Z,3.50
2018-09-05T05:48:29.527Z,4.77
2018-09-05T05:53:32.858Z,4.37
2018-09-05T05:58:36.178Z,4.13
2018-09-05T06:03:39.507Z,5.50
2018-09-05T06:08:42.833Z,4.93
2018-09-05T06:13:46.158Z,4.40
2018-09-05T06:18:49.485Z,8.47
2018-09-05T06:23:52.839Z,4.80
2018-09-05T06:28:56.158Z,4.70
2018-09-05T07:02:45.403Z,3.13
2018-09-05T07:07:48.743Z,3.23
2018-09-05T07:12:52.084Z,4.63
2018-09-05T08:03:57.584Z,4.23
2018-09-05T08:09:00.910Z,4.47
2018-09-05T08:14:04.241Z,4.47
2018-09-05T09:05:08.678Z,5.97
2018-09-05T09:10:11.955Z,3.80
2018-09-05T10:01:16.812Z,5.93
2018-09-05T10:06:20.175Z,9.07
2018-09-05T10:11:23.505Z,8.37
2018-09-05T11:02:28.197Z,6.37
2018-09-05T11:07:31.552Z,9.07
2018-09-05T11:12:35.655Z,8.97
2018-09-05T12:03:41.019Z,8.07
2018-09-05T12:08:44.384Z,7.10
2018-09-05T12:13:47.722Z,9.37
2018-09-05T13:04:51.903Z,9.90
2018-09-05T13:09:55.206Z,8.03
2018-09-05T13:14:58.559Z,8.57
2018-09-05T14:05:55.689Z,7.53
2018-09-05T14:10:59.023Z,6.77
2018-09-05T14:50:33.905Z,9.68
2018-09-05T14:55:37.255Z,10.55
2018-09-05T15:35:10.978Z,11.12
2018-09-05T15:40:14.315Z,9.82
2018-09-05T15:45:17.651Z,14.80
2018-09-05T15:50:21.578Z,12.52
2018-09-05T15:55:24.915Z,12.85
2018-09-05T16:00:29.031Z,13.25
2018-09-05T16:05:32.391Z,10.63
2018-09-05T16:10:35.731Z,10.85
2018-09-05T16:15:39.290Z,13.45
2018-09-05T16:20:42.420Z,11.82
2018-09-05T16:25:46.526Z,12.40
2018-09-05T16:30:50.019Z,11.82
2018-09-05T16:36:00.515Z,13.75
2018-09-05T16:41:03.814Z,11.45
2018-09-05T16:46:07.151Z,11.60
2018-09-05T16:51:11.257Z,11.20
2018-09-05T16:56:27.810Z,13.75
2018-09-05T17:01:31.919Z,14.60
2018-09-05T17:06:39.113Z,11.98
2018-09-05T17:11:42.751Z,13.57
2018-09-05T17:16:46.124Z,14.20
2018-09-05T17:21:49.474Z,13.83
2018-09-05T17:26:52.976Z,13.03
2018-09-05T17:31:56.758Z,11.47
2018-09-05T17:37:00.166Z,11.37
2018-09-05T17:42:03.523Z,12.10
2018-09-05T17:47:06.886Z,12.83
2018-09-05T17:52:10.228Z,12.17
2018-09-05T17:57:13.797Z,15.93
2018-09-05T18:02:17.167Z,12.93
2018-09-05T18:07:20.557Z,14.87
2018-09-05T18:12:23.889Z,16.97
2018-09-05T18:17:27.292Z,14.30
2018-09-05T18:22:30.637Z,13.80
2018-09-05T18:27:33.990Z,15.20
2018-09-05T18:32:38.110Z,13.83
2018-09-05T18:37:42.238Z,13.73
2018-09-05T18:42:46.354Z,17.87
2018-09-05T18:47:49.697Z,16.03
2018-09-05T18:52:56.525Z,14.60
2018-09-05T18:58:06.630Z,17.63
2018-09-05T19:03:34.498Z,20.00
2018-09-05T19:08:40.456Z,20.90
2018-09-05T19:13:47.176Z,18.90
2018-09-05T19:18:54.504Z,19.57
2018-09-05T19:23:57.855Z,20.67
2018-09-05T19:29:01.282Z,23.10
2018-09-05T19:34:05.169Z,24.93
2018-09-05T19:39:08.547Z,23.33
2018-09-05T19:44:15.266Z,24.50
2018-09-05T19:49:19.384Z,20.03
2018-09-05T19:54:22.775Z,23.20
2018-09-05T19:59:26.146Z,25.00
2018-09-05T20:04:29.495Z,23.83
2018-09-05T20:09:32.939Z,23.27
2018-09-05T20:14:36.319Z,23.53
2018-09-05T20:19:39.639Z,21.40
2018-09-05T20:24:43.103Z,22.23
2018-09-05T20:29:47.591Z,25.43
2018-09-05T20:34:51.983Z,24.57
2018-09-05T20:39:56.099Z,23.77
2018-09-05T20:44:59.459Z,25.17
2018-09-05T20:50:02.789Z,27.10
2018-09-05T20:55:07.148Z,40.23
2018-09-05T21:00:10.502Z,27.27
2018-09-05T21:05:13.940Z,24.87
2018-09-05T21:10:17.280Z,23.07
2018-09-05T21:15:20.626Z,22.73
2018-09-05T21:20:23.967Z,27.63
2018-09-05T21:25:27.302Z,21.83
2018-09-05T21:30:30.851Z,21.33
2018-09-05T21:35:34.200Z,22.37
2018-09-05T21:40:37.538Z,22.90
2018-09-05T21:45:40.867Z,20.60
2018-09-05T21:50:44.206Z,20.30
2018-09-05T21:55:47.557Z,21.40
2018-09-05T22:00:50.891Z,19.10
2018-09-05T22:05:57.601Z,17.93
2018-09-05T22:11:00.947Z,16.63
2018-09-05T22:16:13.509Z,16.43
2018-09-05T22:21:16.844Z,13.87
2018-09-05T22:26:52.211Z,14.03
2018-09-05T22:31:55.545Z,13.13
2018-09-05T22:36:58.887Z,15.27
2018-09-05T22:42:02.987Z,14.03
2018-09-05T22:52:53.467Z,17.27
2018-09-05T22:58:02.283Z,16.77
2018-09-05T23:03:05.618Z,14.97
2018-09-05T23:08:09.771Z,15.37
